Accueil
METAR-TAF:

METAR-TAF

Aéroports :

Anchorage, Alaska, États-Unis

latitude: 61-13N, longitude: 149-51W, altitude: 42 m

Observation

Le bulletin a été fait il y a 52 minutes, à 17:53 UTC
Vent calme
Température -19°C
Humidité 77%
Pression 1014 hPa
Visibilité: 12.9 km
Ciel clair

METAR: PAMR 161753Z 00000KT 8SM CLR M19/M22 A2995 RMK AO2 SLP147 I6000 T11891222 11161 21194 53016

Heure: 09:45 (18:45 UTC)


TAF: absent

Observations et prévisions météorologiques de plus de 4000 aéroports (messages METAR et TAF).

Les stations disponibles sont représentées par des disques jaunes et rouges sur la carte.

Passer la souris dessus pour voir le nom de la station.

Cliquer dessus pour voir les observations et prévisions météorologiques.

Pour changer de carte: cliquez sur les boutons verts avec une croix noire pour zoomer, sur le bouton vert avec un tiret pour effectuer un zoom arrière, ou sur les flèches vertes pour les cartes adjacentes.


METAR-TAF: